createdAt,value
2023-02-25T00:01:24.150Z,69.03
2023-02-25T00:03:25.967Z,68.57
2023-02-25T00:05:29.499Z,68.18
2023-02-25T00:07:33.808Z,69.18
2023-02-25T00:09:35.432Z,69.57
2023-02-25T00:11:37.116Z,68.99
2023-02-25T00:13:40.479Z,69.49
2023-02-25T00:15:42.022Z,68.92
2023-02-25T00:17:43.979Z,68.57
2023-02-25T00:19:45.835Z,68.80
2023-02-25T00:21:47.465Z,68.99
2023-02-25T00:23:50.310Z,68.23
2023-02-25T00:26:01.563Z,68.52
2023-02-25T00:28:06.513Z,68.64
2023-02-25T00:30:10.903Z,68.30
2023-02-25T00:32:12.718Z,68.46
2023-02-25T00:34:14.537Z,68.60
2023-02-25T00:36:23.215Z,68.24
2023-02-25T00:38:25.099Z,68.24
2023-02-25T00:40:26.742Z,68.21
2023-02-25T00:42:28.373Z,67.85
2023-02-25T00:44:29.999Z,68.78
2023-02-25T00:46:32.011Z,68.45
2023-02-25T00:48:33.789Z,68.38
2023-02-25T00:50:35.784Z,68.60
2023-02-25T00:52:38.044Z,68.40
2023-02-25T00:54:39.627Z,68.11
2023-02-25T00:56:41.299Z,68.80
2023-02-25T00:58:44.471Z,68.40
2023-02-25T01:00:51.480Z,68.25
2023-02-25T01:02:56.362Z,68.55
2023-02-25T01:04:57.990Z,68.76
2023-02-25T01:06:59.672Z,68.15
2023-02-25T01:09:01.455Z,68.52
2023-02-25T01:11:36.285Z,68.39
2023-02-25T01:13:37.907Z,68.53
2023-02-25T01:15:39.642Z,69.00
2023-02-25T01:17:41.260Z,69.04
2023-02-25T01:19:42.871Z,69.57
2023-02-25T01:21:46.577Z,69.04
2023-02-25T01:24:01.152Z,68.51
2023-02-25T01:26:09.867Z,68.82
2023-02-25T01:28:14.494Z,69.13
2023-02-25T01:30:17.091Z,68.92
2023-02-25T01:32:18.732Z,69.47
2023-02-25T01:34:21.054Z,69.22
2023-02-25T01:36:27.031Z,68.80
2023-02-25T01:38:28.611Z,69.11
2023-02-25T01:40:33.864Z,69.10
2023-02-25T01:42:35.474Z,69.02
2023-02-25T01:45:12.135Z,69.03
2023-02-25T01:47:20.520Z,68.70
2023-02-25T01:49:43.652Z,69.47
2023-02-25T01:51:48.300Z,68.87
2023-02-25T01:53:49.880Z,68.44
2023-02-25T01:55:51.881Z,69.58
2023-02-25T01:57:53.702Z,69.65
2023-02-25T01:59:55.486Z,69.03
2023-02-25T02:01:57.337Z,69.48
2023-02-25T02:03:58.929Z,69.10
2023-02-25T02:06:30.978Z,68.33
2023-02-25T02:08:33.832Z,68.39
2023-02-25T02:10:35.489Z,68.30
2023-02-25T02:12:43.051Z,68.40
2023-02-25T02:14:44.698Z,68.85
2023-02-25T02:16:53.443Z,69.21
2023-02-25T02:19:01.725Z,69.16
2023-02-25T02:21:18.522Z,69.31
2023-02-25T02:23:44.719Z,69.08
2023-02-25T02:26:10.420Z,69.02
2023-02-25T02:28:20.869Z,69.29
2023-02-25T02:30:36.734Z,68.79
2023-02-25T02:32:48.624Z,68.59
2023-02-25T02:35:16.595Z,69.29
2023-02-25T02:37:40.877Z,69.28
2023-02-25T02:40:16.462Z,69.60
2023-02-25T02:42:27.700Z,70.08
2023-02-25T02:44:44.496Z,70.14
2023-02-25T02:46:49.665Z,69.66
2023-02-25T02:48:55.291Z,69.49
2023-02-25T02:51:01.743Z,69.12
2023-02-25T02:53:32.485Z,69.84
2023-02-25T02:55:41.229Z,69.62
2023-02-25T02:57:43.108Z,69.90
2023-02-25T02:59:52.167Z,69.63
2023-02-25T03:02:08.799Z,69.21
2023-02-25T03:04:13.524Z,68.67
2023-02-25T03:06:19.588Z,68.74
2023-02-25T03:08:26.454Z,68.60
2023-02-25T03:10:28.249Z,68.89
2023-02-25T03:12:30.197Z,68.76
2023-02-25T03:14:31.789Z,69.17
2023-02-25T03:16:58.287Z,70.42
2023-02-25T03:19:05.945Z,71.39
2023-02-25T03:21:18.351Z,71.86
2023-02-25T03:23:31.550Z,71.37
2023-02-25T03:25:36.374Z,70.92
2023-02-25T03:27:40.261Z,70.84
2023-02-25T03:29:42.384Z,70.87
2023-02-25T03:31:50.132Z,70.89
2023-02-25T03:33:53.716Z,71.79
2023-02-25T03:35:56.807Z,71.66
2023-02-25T03:38:08.367Z,71.40
2023-02-25T03:40:13.001Z,70.94
2023-02-25T03:42:20.919Z,70.43
2023-02-25T03:44:25.953Z,70.34
2023-02-25T03:46:28.161Z,69.62
2023-02-25T03:48:30.505Z,69.37
2023-02-25T03:50:36.168Z,69.14
2023-02-25T03:52:39.565Z,70.12
2023-02-25T03:54:41.256Z,70.06
2023-02-25T03:56:44.933Z,70.43
2023-02-25T03:58:46.541Z,71.50
2023-02-25T04:00:49.718Z,70.90
2023-02-25T04:02:51.712Z,70.70
2023-02-25T04:04:56.379Z,70.09
2023-02-25T04:06:58.106Z,70.52
2023-02-25T04:08:59.753Z,70.49
2023-02-25T04:11:01.314Z,70.27
2023-02-25T04:13:02.898Z,70.33
2023-02-25T04:15:08.607Z,69.76
2023-02-25T04:17:11.767Z,69.61
2023-02-25T04:19:13.390Z,70.14
2023-02-25T04:21:36.213Z,70.40
2023-02-25T04:23:37.827Z,69.86
2023-02-25T04:25:39.435Z,69.70
2023-02-25T04:27:50.202Z,69.77
2023-02-25T04:29:51.921Z,70.52
2023-02-25T04:31:53.854Z,70.80
2023-02-25T04:33:58.038Z,70.61
2023-02-25T04:36:02.917Z,70.45
2023-02-25T04:38:04.545Z,69.85
2023-02-25T04:40:13.682Z,70.10
2023-02-25T04:42:15.275Z,70.55
2023-02-25T04:44:16.862Z,70.45
2023-02-25T04:46:18.659Z,70.05
2023-02-25T04:48:24.245Z,70.00
2023-02-25T04:50:26.466Z,70.19
2023-02-25T04:52:28.414Z,70.45
2023-02-25T04:54:29.976Z,69.82
2023-02-25T04:56:31.618Z,69.86
2023-02-25T04:58:33.901Z,69.78
2023-02-25T05:00:35.498Z,69.44
2023-02-25T05:02:37.119Z,69.29
2023-02-25T05:04:39.510Z,68.91
2023-02-25T05:06:41.106Z,68.96
2023-02-25T05:08:42.774Z,68.85
2023-02-25T05:10:44.349Z,68.35
2023-02-25T05:12:45.960Z,68.04
2023-02-25T05:14:47.775Z,68.70
2023-02-25T05:16:49.435Z,68.66
2023-02-25T05:18:51.018Z,68.51
2023-02-25T05:20:54.070Z,71.00
2023-02-25T05:22:58.644Z,71.76
2023-02-25T05:25:00.440Z,71.75
2023-02-25T05:27:09.027Z,71.72
2023-02-25T05:29:11.271Z,71.19
2023-02-25T05:31:13.137Z,71.24
2023-02-25T05:33:14.865Z,70.76
2023-02-25T05:35:16.504Z,71.45
2023-02-25T05:37:18.143Z,71.89
2023-02-25T05:39:23.139Z,71.89
2023-02-25T05:41:26.165Z,71.37
2023-02-25T05:43:27.970Z,71.00
2023-02-25T05:45:29.714Z,71.46
2023-02-25T05:47:34.385Z,71.17
2023-02-25T05:49:35.953Z,71.07
2023-02-25T05:51:37.558Z,70.91
2023-02-25T05:53:39.664Z,71.05
2023-02-25T05:55:42.429Z,70.87
2023-02-25T05:57:44.036Z,69.83
2023-02-25T05:59:45.697Z,69.75
2023-02-25T06:01:47.423Z,70.52
2023-02-25T06:03:50.217Z,69.99
2023-02-25T06:05:53.389Z,70.21
2023-02-25T06:07:55.043Z,69.95
2023-02-25T06:10:00.760Z,69.27
2023-02-25T06:12:02.337Z,69.19
2023-02-25T06:14:04.068Z,69.46
2023-02-25T06:16:06.458Z,69.60
2023-02-25T06:18:08.693Z,69.58
2023-02-25T06:20:11.299Z,69.68
2023-02-25T06:22:13.490Z,69.56
2023-02-25T06:24:16.325Z,69.93
2023-02-25T06:26:18.489Z,69.45
2023-02-25T06:28:20.064Z,69.59
2023-02-25T06:30:21.671Z,69.30
2023-02-25T06:32:23.481Z,69.10
2023-02-25T06:34:25.261Z,69.52
2023-02-25T06:36:27.062Z,69.10
2023-02-25T06:38:28.872Z,69.11
2023-02-25T06:40:38.101Z,68.45
2023-02-25T06:42:39.739Z,69.42
2023-02-25T06:44:41.487Z,68.82
2023-02-25T06:46:43.075Z,68.91
2023-02-25T06:48:44.628Z,68.84
2023-02-25T06:50:46.239Z,68.43
2023-02-25T06:52:47.860Z,68.40
2023-02-25T06:54:50.543Z,69.22
2023-02-25T06:56:53.526Z,68.37
2023-02-25T06:58:56.748Z,68.51
2023-02-25T07:00:58.399Z,68.22
2023-02-25T07:03:03.054Z,68.42
2023-02-25T07:05:05.675Z,67.42
2023-02-25T07:07:07.959Z,67.90
2023-02-25T07:09:09.787Z,67.40
2023-02-25T07:11:26.977Z,66.95
2023-02-25T07:13:28.636Z,67.18
2023-02-25T07:15:30.246Z,66.93
2023-02-25T07:17:31.795Z,66.27
2023-02-25T07:19:33.412Z,65.92
2023-02-25T07:21:35.108Z,65.59
2023-02-25T07:23:36.815Z,66.25
2023-02-25T07:25:38.830Z,66.88
2023-02-25T07:27:44.227Z,65.69
2023-02-25T07:29:46.379Z,66.19
2023-02-25T07:31:48.167Z,65.76
2023-02-25T07:33:50.442Z,65.46
2023-02-25T07:35:54.704Z,65.17
2023-02-25T07:37:56.327Z,65.18
2023-02-25T07:40:01.079Z,65.24
2023-02-25T07:42:02.630Z,64.89
2023-02-25T07:44:06.229Z,64.61
2023-02-25T07:46:08.711Z,64.14
2023-02-25T07:48:13.465Z,63.65
2023-02-25T07:50:15.292Z,63.55
2023-02-25T07:52:16.937Z,63.60
2023-02-25T07:54:21.299Z,62.90
2023-02-25T07:56:24.541Z,62.96
2023-02-25T07:58:28.569Z,62.47
2023-02-25T08:00:30.340Z,61.95
2023-02-25T08:02:32.044Z,61.88
2023-02-25T08:04:33.916Z,61.33
2023-02-25T08:06:37.766Z,62.29
2023-02-25T08:08:39.305Z,61.73
2023-02-25T08:10:40.922Z,61.86
2023-02-25T08:12:42.457Z,62.45
2023-02-25T08:14:46.893Z,62.35
2023-02-25T08:16:49.044Z,61.38
2023-02-25T08:18:53.007Z,60.81
2023-02-25T08:20:56.070Z,60.79
2023-02-25T08:22:59.141Z,60.79
2023-02-25T08:25:00.830Z,61.42
2023-02-25T08:27:02.497Z,60.02
2023-02-25T08:29:04.806Z,59.94
2023-02-25T08:31:08.450Z,59.85
2023-02-25T08:33:10.200Z,59.95
2023-02-25T08:35:14.829Z,59.62
2023-02-25T08:37:16.494Z,59.57
2023-02-25T08:39:21.862Z,59.96
2023-02-25T08:41:24.578Z,60.10
2023-02-25T08:43:26.299Z,60.39
2023-02-25T08:45:28.879Z,59.88
2023-02-25T08:47:30.524Z,60.09
2023-02-25T08:49:32.129Z,59.74
2023-02-25T08:51:36.616Z,59.27
2023-02-25T08:53:39.860Z,59.44
2023-02-25T08:55:41.932Z,59.38
2023-02-25T08:57:43.837Z,59.35
2023-02-25T08:59:45.438Z,59.33
2023-02-25T09:01:52.226Z,58.69
2023-02-25T09:03:54.074Z,58.64
2023-02-25T09:05:56.314Z,59.39
2023-02-25T09:08:01.031Z,58.87
2023-02-25T09:10:06.628Z,59.72
2023-02-25T09:12:08.779Z,60.68
2023-02-25T09:14:10.650Z,60.51
2023-02-25T09:16:17.268Z,61.06
2023-02-25T09:18:19.108Z,61.49
2023-02-25T09:20:20.738Z,61.51
2023-02-25T09:22:22.340Z,61.98
2023-02-25T09:24:24.225Z,62.12
2023-02-25T09:26:25.845Z,62.13
2023-02-25T09:28:27.485Z,61.98
2023-02-25T09:30:29.170Z,62.05
2023-02-25T09:32:30.985Z,61.10
2023-02-25T09:34:35.489Z,62.04
2023-02-25T09:36:37.908Z,62.44
2023-02-25T09:38:41.334Z,62.60
2023-02-25T09:40:46.868Z,62.05
2023-02-25T09:43:28.262Z,61.59
2023-02-25T09:45:31.780Z,62.01
2023-02-25T09:47:48.221Z,60.65
2023-02-25T09:50:08.536Z,60.03
2023-02-25T09:52:19.019Z,59.49
2023-02-25T09:54:30.281Z,59.44
2023-02-25T09:56:31.942Z,58.76
2023-02-25T09:58:35.740Z,58.88
2023-02-25T10:00:45.442Z,58.39
2023-02-25T10:03:07.571Z,57.99
2023-02-25T10:05:27.944Z,59.02
2023-02-25T10:07:35.837Z,58.60
2023-02-25T10:09:48.315Z,58.62
2023-02-25T10:12:01.211Z,58.57
2023-02-25T10:14:10.163Z,57.67
2023-02-25T10:16:45.092Z,58.16
2023-02-25T10:19:04.800Z,58.40
2023-02-25T10:21:12.459Z,58.40
2023-02-25T10:23:14.037Z,58.16
2023-02-25T10:25:20.446Z,57.83
2023-02-25T10:27:27.848Z,56.71
2023-02-25T10:29:42.576Z,54.67
2023-02-25T10:31:45.897Z,51.64
2023-02-25T10:33:50.430Z,46.82
2023-02-25T10:36:15.022Z,47.30
2023-02-25T10:38:16.562Z,49.47
2023-02-25T10:40:22.131Z,49.86
2023-02-25T10:42:24.297Z,51.70
2023-02-25T10:44:25.922Z,52.59
2023-02-25T10:46:34.986Z,49.47
2023-02-25T10:48:37.252Z,47.93
2023-02-25T10:50:45.985Z,49.07
2023-02-25T10:52:54.548Z,49.58
2023-02-25T10:54:56.188Z,49.80
2023-02-25T10:57:00.859Z,44.95
2023-02-25T10:59:08.456Z,43.17
2023-02-25T11:01:10.088Z,42.30
2023-02-25T11:03:21.968Z,41.52
2023-02-25T11:05:43.677Z,40.82
2023-02-25T11:07:47.731Z,40.57
2023-02-25T11:09:49.572Z,40.58
2023-02-25T11:12:01.240Z,40.73
2023-02-25T11:14:09.043Z,40.28
2023-02-25T11:16:13.309Z,40.34
2023-02-25T11:18:31.206Z,40.84
2023-02-25T11:20:33.546Z,40.31
2023-02-25T11:22:39.987Z,40.00
2023-02-25T11:24:42.950Z,39.74
2023-02-25T11:26:47.792Z,39.75
2023-02-25T11:28:50.114Z,39.65
2023-02-25T11:30:52.132Z,39.51
2023-02-25T11:32:56.053Z,39.43
2023-02-25T11:35:00.056Z,39.40
2023-02-25T11:37:49.502Z,39.53
2023-02-25T11:39:55.894Z,39.27
2023-02-25T11:42:02.532Z,39.49
2023-02-25T11:44:42.951Z,39.63
2023-02-25T11:46:45.076Z,39.33
2023-02-25T11:48:52.648Z,39.71
2023-02-25T11:51:01.293Z,39.63
2023-02-25T11:53:21.931Z,39.79
2023-02-25T11:55:51.503Z,40.03
2023-02-25T11:58:05.497Z,39.74
2023-02-25T12:00:21.404Z,39.77
2023-02-25T12:02:41.316Z,39.94
2023-02-25T12:05:12.133Z,39.85
2023-02-25T12:07:22.424Z,39.96
2023-02-25T12:09:42.486Z,39.84
2023-02-25T12:12:19.770Z,39.72
2023-02-25T12:14:36.311Z,39.62
2023-02-25T12:16:59.451Z,39.54
2023-02-25T12:19:11.760Z,39.49
2023-02-25T12:21:50.508Z,39.22
2023-02-25T12:24:29.459Z,39.55
2023-02-25T12:27:06.471Z,39.97
2023-02-25T12:29:17.023Z,39.90
2023-02-25T12:31:36.385Z,39.74
2023-02-25T12:33:47.056Z,39.61
2023-02-25T12:36:04.026Z,39.87
2023-02-25T12:38:39.869Z,39.97
2023-02-25T12:40:47.888Z,39.86
2023-02-25T12:43:04.704Z,39.79
2023-02-25T12:45:25.901Z,39.59
2023-02-25T12:47:57.707Z,39.50
2023-02-25T12:50:17.337Z,39.50
2023-02-25T12:52:38.948Z,39.28
2023-02-25T12:55:06.569Z,39.49
2023-02-25T12:57:38.756Z,39.47
2023-02-25T12:59:49.275Z,39.23
2023-02-25T13:02:09.587Z,39.37
2023-02-25T13:04:23.151Z,39.15
2023-02-25T13:06:40.084Z,39.26
2023-02-25T13:09:05.512Z,38.96
2023-02-25T13:11:16.432Z,39.28
2023-02-25T13:13:36.626Z,39.11
2023-02-25T13:15:53.986Z,39.33
2023-02-25T13:18:07.175Z,38.80
2023-02-25T13:20:20.786Z,39.02
2023-02-25T13:22:56.451Z,39.44
2023-02-25T13:25:10.758Z,39.08
2023-02-25T13:27:22.248Z,38.46
2023-02-25T13:29:30.196Z,38.62
2023-02-25T13:31:52.938Z,38.31
2023-02-25T13:34:19.526Z,38.58
2023-02-25T13:36:32.761Z,38.28
2023-02-25T13:38:52.571Z,38.17
2023-02-25T13:41:15.510Z,37.47
2023-02-25T13:43:29.333Z,37.72
2023-02-25T13:46:02.260Z,37.24
2023-02-25T13:48:27.899Z,37.31
2023-02-25T13:50:47.776Z,37.46
2023-02-25T13:53:04.315Z,37.34
2023-02-25T13:55:27.349Z,37.97
2023-02-25T13:58:05.862Z,39.13
2023-02-25T14:00:31.903Z,39.70
2023-02-25T14:03:09.830Z,39.37
2023-02-25T14:05:30.104Z,39.07
2023-02-25T14:07:56.859Z,39.22
2023-02-25T14:10:25.679Z,38.88
2023-02-25T14:12:44.381Z,38.96
2023-02-25T14:15:16.729Z,38.56
2023-02-25T14:17:59.971Z,38.49
2023-02-25T14:20:14.453Z,38.37
2023-02-25T14:22:24.958Z,38.65
2023-02-25T14:24:45.422Z,38.94
2023-02-25T14:27:11.639Z,38.78
2023-02-25T14:29:57.622Z,39.22
2023-02-25T14:32:22.073Z,38.68
2023-02-25T14:34:23.525Z,38.42
2023-02-25T19:59:39.925Z,43.52
2023-02-25T20:01:42.146Z,43.74
2023-02-25T20:03:43.798Z,44.41
2023-02-25T20:05:45.441Z,44.45
2023-02-25T20:07:47.236Z,44.79
2023-02-25T20:09:49.001Z,44.79
2023-02-25T20:11:51.693Z,44.85
2023-02-25T20:13:53.265Z,44.53
2023-02-25T20:16:01.661Z,45.20
2023-02-25T20:18:03.502Z,45.10
2023-02-25T20:20:06.866Z,44.97
2023-02-25T20:22:08.667Z,44.89
2023-02-25T20:24:10.207Z,44.77
2023-02-25T20:26:13.791Z,45.05
2023-02-25T20:28:15.341Z,44.85
2023-02-25T20:30:17.764Z,44.74
2023-02-25T20:32:19.412Z,45.03
2023-02-25T20:34:23.589Z,44.95
2023-02-25T20:36:27.643Z,44.85
2023-02-25T20:38:33.667Z,44.83
2023-02-25T20:40:35.385Z,45.14
2023-02-25T20:42:37.097Z,44.63
2023-02-25T20:44:38.945Z,44.79
2023-02-25T20:46:42.645Z,44.63
2023-02-25T20:48:44.352Z,44.91
2023-02-25T20:50:46.246Z,44.59
2023-02-25T20:52:48.301Z,44.54
2023-02-25T20:54:50.116Z,44.44
2023-02-25T20:56:51.864Z,44.78
2023-02-25T20:58:54.897Z,44.77
2023-02-25T21:00:57.343Z,44.79
2023-02-25T21:02:59.030Z,44.34
2023-02-25T21:05:00.626Z,43.29
2023-02-25T21:07:03.798Z,43.52
2023-02-25T21:09:07.022Z,43.47
2023-02-25T21:11:09.125Z,42.78
2023-02-25T21:13:11.101Z,42.42
2023-02-25T21:15:12.705Z,42.31
2023-02-25T21:17:14.350Z,42.32
2023-02-25T21:19:16.093Z,42.17
2023-02-25T21:21:20.419Z,41.97
2023-02-25T21:23:24.538Z,41.84
2023-02-25T21:25:26.120Z,42.12
2023-02-25T21:27:29.136Z,41.81
2023-02-25T21:29:30.779Z,41.73
2023-02-25T21:31:36.099Z,41.71
2023-02-25T21:33:38.699Z,41.58
2023-02-25T21:35:40.805Z,41.68
2023-02-25T21:37:42.588Z,41.48
2023-02-25T21:39:44.217Z,41.13
2023-02-25T21:41:46.171Z,41.25
2023-02-25T21:43:47.869Z,41.01
2023-02-25T21:45:56.284Z,41.17
2023-02-25T21:47:57.875Z,40.59
2023-02-25T21:49:59.418Z,40.48
2023-02-25T21:52:01.620Z,40.68
2023-02-25T21:54:03.470Z,40.24
2023-02-25T21:56:13.085Z,40.06
2023-02-25T21:58:15.525Z,40.17
2023-02-25T22:00:17.599Z,40.10
2023-02-25T22:02:19.861Z,39.92
2023-02-25T22:04:21.495Z,39.83
2023-02-25T22:06:24.651Z,39.69
2023-02-25T22:08:26.501Z,39.52
2023-02-25T22:10:28.228Z,39.14
2023-02-25T22:12:29.973Z,39.08
2023-02-25T22:14:31.582Z,38.97
2023-02-25T22:16:33.833Z,38.56
2023-02-25T22:18:35.915Z,38.63
2023-02-25T22:20:37.462Z,38.78
2023-02-25T22:22:39.264Z,38.95
2023-02-25T22:24:40.867Z,39.21
2023-02-25T22:26:42.425Z,38.99
2023-02-25T22:28:44.514Z,39.26
2023-02-25T22:30:46.932Z,38.76
2023-02-25T22:32:48.674Z,38.59
2023-02-25T22:34:50.381Z,38.81
2023-02-25T22:36:52.242Z,39.02
2023-02-25T22:38:53.891Z,39.03
2023-02-25T22:40:55.625Z,39.20
2023-02-25T22:42:57.227Z,39.00
2023-02-25T22:44:58.809Z,39.25
2023-02-25T22:47:00.454Z,39.39
2023-02-25T22:49:02.946Z,39.06
2023-02-25T22:51:05.588Z,38.97
2023-02-25T22:53:07.187Z,39.24
2023-02-25T22:55:11.942Z,39.32
2023-02-25T22:57:13.530Z,39.17
2023-02-25T22:59:15.261Z,39.27
2023-02-25T23:01:19.423Z,39.64
2023-02-25T23:03:21.249Z,39.47
2023-02-25T23:05:22.872Z,39.27
2023-02-25T23:07:24.456Z,39.52
2023-02-25T23:09:26.189Z,38.31
2023-02-25T23:11:30.058Z,39.27
2023-02-25T23:13:31.714Z,39.29
2023-02-25T23:15:36.605Z,38.63
2023-02-25T23:17:38.962Z,38.81
2023-02-25T23:19:40.588Z,38.65
2023-02-25T23:21:42.391Z,39.13
2023-02-25T23:23:44.124Z,38.96
2023-02-25T23:25:51.515Z,38.54
2023-02-25T23:27:53.090Z,38.53
2023-02-25T23:29:54.729Z,38.35
2023-02-25T23:31:56.496Z,38.99
2023-02-25T23:34:08.830Z,38.85
2023-02-25T23:36:11.346Z,39.17
2023-02-25T23:38:13.240Z,39.00
2023-02-25T23:40:15.279Z,38.79
2023-02-25T23:42:16.903Z,38.85
2023-02-25T23:44:18.558Z,39.69
2023-02-25T23:46:20.394Z,39.70
2023-02-25T23:48:22.013Z,38.82
2023-02-25T23:50:23.657Z,39.03
2023-02-25T23:52:25.345Z,38.53
2023-02-25T23:54:26.974Z,38.79
2023-02-25T23:56:30.833Z,37.62
2023-02-25T23:58:32.524Z,38.64
